Time;durP1;ratioP1;P1;durP2;ratioP2;P2;SDS_P1;SDS_P2;PMS_P1;PMS_P2;Temp;Humidity;BMP_temperature;BMP_pressure;BME280_temperature;BME280_humidity;BME280_pressure;Samples;Min_cycle;Max_cycle;Signal;HPM_P1;HPM_P2
2020/12/12 00:00:54;;;;;;;;;;;;;;;2.77;98.76;96735.97;5024835;28;20350;-91
2020/12/12 00:03:19;;;;;;;;;;;;;;;2.83;98.77;96734.88;5023999;28;19979;-90
2020/12/12 00:05:44;;;;;;;;;;;;;;;2.80;98.22;96740.09;5040761;28;20011;-90
2020/12/12 00:08:10;;;;;;;;;;;;;;;2.95;98.10;96746.34;5042062;28;19970;-90
2020/12/12 00:10:35;;;;;;;;;;;;;;;2.86;98.68;96747.50;5024702;28;20130;-90
2020/12/12 00:13:00;;;;;;;;;;;;;;;2.90;97.75;96744.78;5022699;28;19924;-90
2020/12/12 00:15:25;;;;;;;;;;;;;;;2.91;98.57;96743.88;5047978;28;20001;-91
2020/12/12 00:17:51;;;;;;;;;;;;;;;2.73;99.16;96744.59;5084093;28;19920;-91
2020/12/12 00:20:16;;;;;;;;;;;;;;;2.75;99.71;96744.53;5081298;28;19924;-90
2020/12/12 00:22:41;;;;;;;;;;;;;;;2.74;99.14;96738.63;5081341;28;19977;-89
2020/12/12 00:25:08;;;;;;;;;;;;;;;2.81;99.06;96745.13;5081332;28;19963;-90
2020/12/12 00:27:33;;;;;;;;;;;;;;;2.86;99.38;96733.06;5078883;28;19953;-90
2020/12/12 00:29:59;;;;;;;;;;;;;;;2.84;99.18;96737.38;5074582;28;19924;-91
2020/12/12 00:32:24;;;;;;;;;;;;;;;2.84;99.13;96745.00;5078347;28;19963;-90
2020/12/12 00:34:49;;;;;;;;;;;;;;;2.89;98.70;96738.03;5074192;28;19947;-90
2020/12/12 00:37:18;;;;;;;;;;;;;;;2.80;99.61;96742.66;5057320;28;19916;-90
2020/12/12 00:39:43;;;;;;;;;;;;;;;2.80;99.55;96743.47;5079630;28;20035;-90
2020/12/12 00:42:08;;;;;;;;;;;;;;;2.84;99.24;96739.94;5073760;28;20015;-90
2020/12/12 00:44:34;;;;;;;;;;;;;;;2.81;99.29;96740.06;5074522;28;20323;-89
2020/12/12 00:47:02;;;;;;;;;;;;;;;2.84;99.16;96746.72;5023443;28;19921;-90
2020/12/12 00:49:27;;;;;;;;;;;;;;;2.80;99.15;96743.47;5075230;28;20034;-89
2020/12/12 00:51:53;;;;;;;;;;;;;;;2.85;99.14;96746.69;5083507;28;19956;-90
2020/12/12 00:54:18;;;;;;;;;;;;;;;2.95;99.08;96741.25;5079083;28;20277;-91
2020/12/12 00:56:43;;;;;;;;;;;;;;;2.90;99.35;96742.25;5080141;28;19936;-91
2020/12/12 00:59:08;;;;;;;;;;;;;;;2.90;99.07;96749.88;5056107;28;19929;-90
2020/12/12 01:01:34;;;;;;;;;;;;;;;2.92;99.69;96747.28;5039652;28;19924;-90
2020/12/12 01:03:59;;;;;;;;;;;;;;;2.88;99.33;96751.66;5069924;28;20399;-90
2020/12/12 01:06:24;;;;;;;;;;;;;;;2.95;99.65;96752.25;5080119;28;19924;-89
2020/12/12 01:08:50;;;;;;;;;;;;;;;2.95;99.17;96752.25;5074897;28;20572;-90
2020/12/12 01:11:17;;;;;;;;;;;;;;;2.96;98.93;96747.97;5082566;28;19959;-90
2020/12/12 01:13:42;;;;;;;;;;;;;;;2.90;99.04;96744.78;5074111;28;20406;-90
2020/12/12 01:16:12;;;;;;;;;;;;;;;2.86;98.89;96747.50;5082937;28;20443;-89
2020/12/12 01:18:37;;;;;;;;;;;;;;;2.93;99.51;96749.75;5065542;28;19924;-90
2020/12/12 01:21:03;;;;;;;;;;;;;;;2.91;99.37;96756.59;5080416;28;19931;-90
2020/12/12 01:23:28;;;;;;;;;;;;;;;2.89;98.34;96755.81;5063747;28;20148;-90
2020/12/12 01:25:53;;;;;;;;;;;;;;;2.91;99.44;96760.88;5080426;28;19924;-90
2020/12/12 01:28:20;;;;;;;;;;;;;;;2.98;99.44;96757.19;5084630;28;20510;-91
2020/12/12 01:30:46;;;;;;;;;;;;;;;2.90;99.68;96761.75;5038702;28;20435;-90
2020/12/12 01:33:11;;;;;;;;;;;;;;;2.87;99.55;96760.16;5040003;28;19924;-90
2020/12/12 01:35:36;;;;;;;;;;;;;;;2.85;99.97;96761.94;5041407;28;19924;-91
2020/12/12 01:38:02;;;;;;;;;;;;;;;2.84;99.97;96755.19;5038623;28;19970;-91
2020/12/12 01:40:27;;;;;;;;;;;;;;;2.87;100.00;96767.78;5041383;28;20344;-90
2020/12/12 01:42:52;;;;;;;;;;;;;;;2.84;100.00;96765.34;5064763;28;19973;-90
2020/12/12 01:45:17;;;;;;;;;;;;;;;2.86;100.00;96761.03;5081697;28;19921;-90
2020/12/12 01:47:43;;;;;;;;;;;;;;;2.88;99.60;96771.16;5056297;28;20152;-91
2020/12/12 01:50:08;;;;;;;;;;;;;;;2.83;99.68;96773.03;5039863;28;20019;-91
2020/12/12 01:52:33;;;;;;;;;;;;;;;2.89;98.99;96767.72;5081229;28;20394;-91
2020/12/12 01:55:02;;;;;;;;;;;;;;;2.84;100.00;96755.19;5087905;28;20410;-91
2020/12/12 01:57:27;;;;;;;;;;;;;;;2.87;100.00;96756.78;5069004;28;19924;-92
2020/12/12 01:59:53;;;;;;;;;;;;;;;2.84;100.00;96760.25;5043486;28;20218;-91
2020/12/12 02:02:19;;;;;;;;;;;;;;;2.86;100.00;96773.75;5044916;28;19924;-91
2020/12/12 02:05:03;;;;;;;;;;;;;;;2.90;100.00;96772.75;5043823;28;19920;-91
2020/12/12 02:07:29;;;;;;;;;;;;;;;2.83;100.00;96768.78;5033722;28;19935;-90
2020/12/12 02:09:54;;;;;;;;;;;;;;;2.90;100.00;96785.47;5044284;28;20046;-92
2020/12/12 02:12:19;;;;;;;;;;;;;;;2.87;100.00;96780.50;5043414;28;19951;-90
2020/12/12 02:14:45;;;;;;;;;;;;;;;2.94;100.00;96770.91;5035179;28;20710;-91
2020/12/12 02:17:10;;;;;;;;;;;;;;;2.87;100.00;96780.50;5022786;28;20019;-92
2020/12/12 02:19:36;;;;;;;;;;;;;;;2.90;100.00;96772.75;5055248;28;19990;-91
2020/12/12 02:22:02;;;;;;;;;;;;;;;2.84;100.00;96778.06;5031506;28;19952;-91
2020/12/12 02:24:31;;;;;;;;;;;;;;;2.84;100.00;96774.69;5029005;28;19963;-90
2020/12/12 02:26:57;;;;;;;;;;;;;;;2.79;100.00;96774.88;5029573;28;20324;-90
2020/12/12 02:29:25;;;;;;;;;;;;;;;2.87;100.00;96774.56;5038674;28;20308;-92
2020/12/12 02:31:50;;;;;;;;;;;;;;;2.84;100.00;96780.59;5040198;28;20007;-91
2020/12/12 02:34:16;;;;;;;;;;;;;;;2.82;100.00;96766.28;5027757;28;19925;-91
2020/12/12 02:36:43;;;;;;;;;;;;;;;2.84;100.00;96772.97;5030068;28;19932;-91
2020/12/12 02:39:11;;;;;;;;;;;;;;;2.90;100.00;96782.09;5021905;28;20380;-91
2020/12/12 02:41:36;;;;;;;;;;;;;;;2.88;100.00;96773.69;5032019;28;20325;-91
2020/12/12 02:44:02;;;;;;;;;;;;;;;2.88;100.00;96771.97;5029714;28;20008;-92
2020/12/12 02:46:27;;;;;;;;;;;;;;;2.91;100.00;96769.31;5026890;28;19971;-90
2020/12/12 02:48:52;;;;;;;;;;;;;;;2.89;100.00;96770.25;5042633;28;19920;-91
2020/12/12 02:51:18;;;;;;;;;;;;;;;2.88;100.00;96771.16;5022958;28;20396;-91
2020/12/12 02:53:44;;;;;;;;;;;;;;;2.90;100.00;96774.47;5039817;28;20184;-90
2020/12/12 02:56:09;;;;;;;;;;;;;;;2.86;100.00;96768.66;5022741;28;19925;-92
2020/12/12 02:58:35;;;;;;;;;;;;;;;2.89;100.00;96763.47;5039077;28;19924;-91
2020/12/12 03:01:00;;;;;;;;;;;;;;;2.86;99.92;96778.00;5040083;28;19935;-91
2020/12/12 03:03:25;;;;;;;;;;;;;;;2.88;100.00;96777.06;5043086;28;20291;-91
2020/12/12 03:05:51;;;;;;;;;;;;;;;2.83;100.00;96775.56;5006935;28;20782;-90
2020/12/12 03:08:17;;;;;;;;;;;;;;;2.95;100.00;96784.47;5039134;28;20392;-91
2020/12/12 03:10:42;;;;;;;;;;;;;;;3.00;100.00;96777.50;5044800;28;20625;-91
2020/12/12 03:13:07;;;;;;;;;;;;;;;2.96;100.00;96788.66;5023937;28;20015;-92
2020/12/12 03:15:32;;;;;;;;;;;;;;;2.97;100.00;96785.25;5054184;28;19934;-91
2020/12/12 03:17:58;;;;;;;;;;;;;;;3.01;100.00;96786.75;5043164;28;20280;-91
2020/12/12 03:20:23;;;;;;;;;;;;;;;3.01;100.00;96792.72;5040317;28;19924;-91
2020/12/12 03:22:48;;;;;;;;;;;;;;;3.05;100.00;96788.31;5025840;28;19931;-91
2020/12/12 03:25:14;;;;;;;;;;;;;;;3.10;100.00;96791.50;5023901;28;19924;-91
2020/12/12 03:27:39;;;;;;;;;;;;;;;3.05;100.00;96798.50;5042245;28;19924;-91
2020/12/12 03:30:04;;;;;;;;;;;;;;;3.10;100.00;96796.59;5024023;28;19928;-90
2020/12/12 03:32:30;;;;;;;;;;;;;;;3.11;100.00;96795.72;5052641;28;19974;-91
2020/12/12 03:34:55;;;;;;;;;;;;;;;3.14;100.00;96798.13;5043489;28;19968;-91
2020/12/12 03:37:20;;;;;;;;;;;;;;;3.09;100.00;96785.59;5042008;28;19993;-89
2020/12/12 03:39:46;;;;;;;;;;;;;;;3.11;100.00;96788.09;5023486;28;20418;-90
2020/12/12 03:42:11;;;;;;;;;;;;;;;3.18;100.00;96783.59;5023084;28;19934;-91
2020/12/12 03:44:36;;;;;;;;;;;;;;;3.25;100.00;96785.84;5043579;28;20344;-91
2020/12/12 03:47:01;;;;;;;;;;;;;;;3.24;99.69;96785.88;5042256;28;20070;-90
2020/12/12 03:49:27;;;;;;;;;;;;;;;3.22;100.00;96791.06;5042972;28;19924;-91
2020/12/12 03:51:52;;;;;;;;;;;;;;;3.26;99.98;96782.44;5040115;28;19924;-91
2020/12/12 03:54:17;;;;;;;;;;;;;;;3.27;99.50;96789.16;5044010;28;19921;-91
2020/12/12 03:56:42;;;;;;;;;;;;;;;3.34;99.00;96794.84;5040385;28;20013;-91
2020/12/12 03:59:08;;;;;;;;;;;;;;;3.24;99.74;96794.38;5040884;28;19966;-91
2020/12/12 04:01:33;;;;;;;;;;;;;;;3.33;99.66;96801.66;5073031;28;19932;-90
2020/12/12 04:03:58;;;;;;;;;;;;;;;3.35;99.53;96797.34;5024985;28;20351;-92
2020/12/12 04:06:24;;;;;;;;;;;;;;;3.44;99.02;96805.47;5040975;28;19925;-91
2020/12/12 04:08:49;;;;;;;;;;;;;;;3.41;99.20;96805.63;5040780;28;19948;-91
2020/12/12 04:11:15;;;;;;;;;;;;;;;3.39;99.82;96809.94;5042807;28;19977;-91
2020/12/12 04:13:40;;;;;;;;;;;;;;;3.43;99.68;96814.84;5026209;28;19920;-91
2020/12/12 04:16:05;;;;;;;;;;;;;;;3.39;99.49;96802.28;5050347;28;20313;-90
2020/12/12 04:18:30;;;;;;;;;;;;;;;3.41;99.78;96813.25;5085556;28;19920;-92
2020/12/12 04:20:56;;;;;;;;;;;;;;;3.40;99.77;96817.50;5058504;28;19932;-90
2020/12/12 04:23:21;;;;;;;;;;;;;;;3.40;99.35;96812.44;5056565;28;20168;-91
2020/12/12 04:25:46;;;;;;;;;;;;;;;3.45;100.00;96820.69;5058665;28;20372;-91
2020/12/12 04:28:12;;;;;;;;;;;;;;;3.42;100.00;96809.81;5083610;28;19975;-91
2020/12/12 04:30:37;;;;;;;;;;;;;;;3.47;99.39;96818.09;5086115;28;19926;-92
2020/12/12 04:33:02;;;;;;;;;;;;;;;3.40;100.00;96817.50;5085194;28;19958;-91
2020/12/12 04:35:27;;;;;;;;;;;;;;;3.41;100.00;96820.88;5050611;28;19920;-92
2020/12/12 04:37:53;;;;;;;;;;;;;;;3.42;100.00;96812.34;5042297;28;20370;-91
2020/12/12 04:40:18;;;;;;;;;;;;;;;3.38;100.00;96816.75;5083487;28;20414;-91
2020/12/12 04:42:45;;;;;;;;;;;;;;;3.45;100.00;96814.78;5058448;28;19925;-91
2020/12/12 04:45:10;;;;;;;;;;;;;;;3.49;100.00;96823.94;5056466;28;19924;-91
2020/12/12 04:47:36;;;;;;;;;;;;;;;3.40;100.00;96821.75;5061133;28;19924;-90
2020/12/12 04:50:02;;;;;;;;;;;;;;;3.43;99.31;96824.19;5068736;28;19923;-91
2020/12/12 04:52:28;;;;;;;;;;;;;;;3.44;99.54;96833.47;5069962;28;19920;-90
2020/12/12 04:54:54;;;;;;;;;;;;;;;3.45;99.26;96837.69;5071287;28;20011;-91
2020/12/12 04:57:19;;;;;;;;;;;;;;;3.48;100.00;96824.84;5057373;28;20022;-91
2020/12/12 04:59:44;;;;;;;;;;;;;;;3.45;100.00;96838.50;5081016;28;20316;-91
2020/12/12 05:02:13;;;;;;;;;;;;;;;3.54;100.00;96837.34;5074292;28;19920;-91
2020/12/12 05:04:42;;;;;;;;;;;;;;;3.51;99.00;96837.44;5065541;28;19998;-91
2020/12/12 05:07:08;;;;;;;;;;;;;;;3.50;100.00;96835.78;5056179;28;22520;-90
2020/12/12 05:09:34;;;;;;;;;;;;;;;3.61;98.80;96843.84;5077031;28;20438;-91
2020/12/12 05:11:59;;;;;;;;;;;;;;;3.59;99.71;96848.16;5073965;28;19954;-90
2020/12/12 05:14:25;;;;;;;;;;;;;;;3.63;99.29;96842.06;5066264;28;20019;-90
2020/12/12 05:16:54;;;;;;;;;;;;;;;3.66;99.48;96848.75;5035272;28;19936;-90
2020/12/12 05:19:19;;;;;;;;;;;;;;;3.63;99.03;96851.44;5025515;28;19916;-91
2020/12/12 05:21:48;;;;;;;;;;;;;;;3.69;99.08;96852.00;5051255;28;19927;-90
2020/12/12 05:24:13;;;;;;;;;;;;;;;3.57;98.86;96847.38;5030499;28;19921;-90
2020/12/12 05:26:39;;;;;;;;;;;;;;;3.62;99.55;96845.47;5035383;28;20415;-90
2020/12/12 05:29:04;;;;;;;;;;;;;;;3.70;99.77;96858.75;5029810;28;19924;-90
2020/12/12 05:31:30;;;;;;;;;;;;;;;3.73;99.85;96857.81;5053724;28;19924;-90
2020/12/12 05:33:55;;;;;;;;;;;;;;;3.59;100.00;96863.44;5043545;28;19924;-90
2020/12/12 05:36:24;;;;;;;;;;;;;;;3.72;100.00;96863.78;5017648;28;20495;-90
2020/12/12 05:38:57;;;;;;;;;;;;;;;3.54;100.00;96862.78;5017583;28;19921;-91
2020/12/12 05:41:24;;;;;;;;;;;;;;;3.76;99.21;96863.63;5024806;28;20000;-90
2020/12/12 05:43:49;;;;;;;;;;;;;;;3.60;100.00;96870.16;5028318;28;20477;-90
2020/12/12 05:46:15;;;;;;;;;;;;;;;3.67;99.96;96863.97;5050284;28;19935;-90
2020/12/12 05:48:40;;;;;;;;;;;;;;;3.67;99.55;96858.88;5035529;28;19920;-91
2020/12/12 05:51:05;;;;;;;;;;;;;;;3.59;100.00;96860.88;5035587;28;19978;-90
2020/12/12 05:53:31;;;;;;;;;;;;;;;3.59;99.65;96860.88;5029980;28;20243;-91
2020/12/12 05:55:56;;;;;;;;;;;;;;;3.68;99.54;96868.16;5024156;28;19935;-90
2020/12/12 05:58:22;;;;;;;;;;;;;;;3.59;100.00;96871.06;5028995;28;20039;-90
2020/12/12 06:00:47;;;;;;;;;;;;;;;3.55;100.00;96864.44;5021494;28;20011;-90
2020/12/12 06:03:31;;;;;;;;;;;;;;;3.55;99.89;96869.50;5035802;28;19924;-90
2020/12/12 06:06:04;;;;;;;;;;;;;;;3.54;100.00;96867.88;5036791;28;19968;-91
2020/12/12 06:08:33;;;;;;;;;;;;;;;3.48;100.00;96873.19;5055646;28;20338;-89
2020/12/12 06:11:01;;;;;;;;;;;;;;;3.55;100.00;96882.25;5052255;28;20484;-90
2020/12/12 06:13:26;;;;;;;;;;;;;;;3.48;100.00;96879.09;5052370;28;19968;-90
2020/12/12 06:15:52;;;;;;;;;;;;;;;3.55;99.29;96884.78;5020905;28;20329;-91
2020/12/12 06:18:17;;;;;;;;;;;;;;;3.54;100.00;96885.69;5038850;28;19989;-90
2020/12/12 06:20:42;;;;;;;;;;;;;;;3.56;100.00;96886.47;5071590;28;20242;-91
2020/12/12 06:23:08;;;;;;;;;;;;;;;3.52;100.00;96890.00;5055361;28;20435;-90
2020/12/12 06:25:33;;;;;;;;;;;;;;;3.58;100.00;96897.41;5039033;28;19912;-90
2020/12/12 06:27:58;;;;;;;;;;;;;;;3.63;99.50;96892.16;5072751;28;19943;-90
2020/12/12 06:30:25;;;;;;;;;;;;;;;3.61;99.69;96899.84;5056769;28;19932;-89
2020/12/12 06:32:57;;;;;;;;;;;;;;;3.57;99.82;96903.38;5023847;28;19916;-90
2020/12/12 06:35:23;;;;;;;;;;;;;;;3.64;100.00;96903.97;5058315;28;20008;-90
2020/12/12 06:37:48;;;;;;;;;;;;;;;3.65;99.88;96901.38;5038656;28;19917;-91
2020/12/12 06:40:17;;;;;;;;;;;;;;;3.51;100.00;96908.69;5025501;28;19931;-91
2020/12/12 06:42:43;;;;;;;;;;;;;;;3.63;100.00;96917.59;5025857;28;19947;-90
2020/12/12 06:45:14;;;;;;;;;;;;;;;3.64;100.00;96914.97;5040878;28;19928;-90
2020/12/12 06:47:41;;;;;;;;;;;;;;;3.64;99.37;96914.97;5057688;28;19962;-90
2020/12/12 06:50:06;;;;;;;;;;;;;;;3.62;100.00;96915.94;5041664;28;19928;-90
2020/12/12 06:52:31;;;;;;;;;;;;;;;3.65;99.58;96928.53;5057824;28;19927;-91
2020/12/12 06:55:00;;;;;;;;;;;;;;;3.68;99.63;96929.25;5043652;28;19926;-89
2020/12/12 06:57:33;;;;;;;;;;;;;;;3.74;99.53;96934.13;5057804;28;20008;-91
2020/12/12 06:59:58;;;;;;;;;;;;;;;3.62;100.00;96937.09;5059116;28;20011;-90
2020/12/12 07:02:23;;;;;;;;;;;;;;;3.58;99.92;96930.50;5037013;28;19929;-90
2020/12/12 07:04:49;;;;;;;;;;;;;;;3.65;99.77;96929.38;5039676;28;19974;-90
2020/12/12 07:07:15;;;;;;;;;;;;;;;3.53;100.00;96929.81;5023157;28;19924;-90
2020/12/12 07:09:40;;;;;;;;;;;;;;;3.64;100.00;96932.78;5043592;28;19920;-89
2020/12/12 07:12:06;;;;;;;;;;;;;;;3.66;100.00;96933.56;5023586;28;19932;-90
2020/12/12 07:14:33;;;;;;;;;;;;;;;3.71;99.59;96941.84;5057310;28;19931;-90
2020/12/12 07:16:59;;;;;;;;;;;;;;;3.71;99.75;96941.84;5040727;28;20356;-89
2020/12/12 07:19:31;;;;;;;;;;;;;;;3.66;100.00;96951.38;5024724;28;19932;-91
2020/12/12 07:21:57;;;;;;;;;;;;;;;3.60;99.81;96946.50;5058410;28;19924;-90
2020/12/12 07:24:22;;;;;;;;;;;;;;;3.58;98.80;96950.88;5057166;28;19931;-91
2020/12/12 07:26:47;;;;;;;;;;;;;;;3.63;100.00;96948.97;5041657;28;20115;-89
2020/12/12 07:29:13;;;;;;;;;;;;;;;3.68;100.00;96962.34;5023515;28;19924;-91
2020/12/12 07:31:38;;;;;;;;;;;;;;;3.64;99.44;96963.34;5023502;28;19955;-90
2020/12/12 07:34:03;;;;;;;;;;;;;;;3.59;99.86;96961.88;5041329;28;20269;-91
2020/12/12 07:36:29;;;;;;;;;;;;;;;3.68;99.93;96969.97;5022890;28;19920;-95
2020/12/12 07:38:54;;;;;;;;;;;;;;;3.80;99.05;96971.22;5024233;28;19920;-90
2020/12/12 07:41:19;;;;;;;;;;;;;;;3.75;99.12;96976.50;5039989;28;20011;-89
2020/12/12 07:43:55;;;;;;;;;;;;;;;3.70;99.59;96978.41;5023458;28;20308;-90
2020/12/12 07:46:20;;;;;;;;;;;;;;;3.70;99.54;96975.84;5057499;28;20364;-92
2020/12/12 07:48:58;;;;;;;;;;;;;;;3.72;100.00;96976.63;5024349;28;19925;-91
2020/12/12 07:51:24;;;;;;;;;;;;;;;3.73;100.00;96982.53;5057171;28;19923;-93
2020/12/12 07:53:49;;;;;;;;;;;;;;;3.75;100.00;96984.13;5024806;28;19928;-93
2020/12/12 07:56:15;;;;;;;;;;;;;;;3.76;100.00;96982.41;5024070;28;19924;-92
2020/12/12 07:58:40;;;;;;;;;;;;;;;3.77;100.00;96984.91;5042271;28;19924;-92
2020/12/12 08:01:05;;;;;;;;;;;;;;;3.76;100.00;96996.00;5024079;28;20341;-92
2020/12/12 08:03:31;;;;;;;;;;;;;;;3.81;100.00;97008.56;5057417;28;19963;-92
2020/12/12 08:06:06;;;;;;;;;;;;;;;3.83;99.04;97005.94;5023451;28;19924;-91
2020/12/12 08:08:32;;;;;;;;;;;;;;;3.90;100.00;97012.44;5073611;28;20385;-92
2020/12/12 08:10:58;;;;;;;;;;;;;;;3.84;99.57;97017.78;5073638;28;19925;-93
2020/12/12 08:13:24;;;;;;;;;;;;;;;3.92;99.65;97020.88;5039721;28;19979;-92
2020/12/12 08:15:57;;;;;;;;;;;;;;;3.86;99.40;97023.66;5008510;28;20792;-93
2020/12/12 08:18:23;;;;;;;;;;;;;;;3.82;99.59;97028.03;5039291;28;20219;-92
2020/12/12 08:20:48;;;;;;;;;;;;;;;3.87;99.96;97025.31;5038153;28;19925;-94
2020/12/12 08:23:18;;;;;;;;;;;;;;;3.87;99.15;97032.94;5054781;28;20171;-92
2020/12/12 08:25:43;;;;;;;;;;;;;;;4.03;98.85;97028.94;5038105;28;19983;-91
2020/12/12 08:28:08;;;;;;;;;;;;;;;4.10;99.74;97032.91;5034667;28;19925;-90
2020/12/12 08:30:34;;;;;;;;;;;;;;;4.06;98.97;97039.03;5001182;28;20047;-89
2020/12/12 08:33:11;;;;;;;;;;;;;;;4.06;99.83;97033.94;5036384;28;20651;-90
2020/12/12 08:35:37;;;;;;;;;;;;;;;4.06;98.85;97048.38;5036981;28;19935;-93
2020/12/12 08:38:04;;;;;;;;;;;;;;;4.05;99.41;97041.63;5034342;28;19920;-89
2020/12/12 08:40:31;;;;;;;;;;;;;;;4.17;100.00;97047.09;5036508;28;20150;-89
2020/12/12 08:43:00;;;;;;;;;;;;;;;4.34;99.13;97048.16;5036298;28;19971;-91
2020/12/12 08:45:27;;;;;;;;;;;;;;;4.27;98.52;97052.66;5023020;28;19924;-91
2020/12/12 08:47:59;;;;;;;;;;;;;;;4.39;99.43;97056.47;5055013;28;19928;-91
2020/12/12 08:50:25;;;;;;;;;;;;;;;4.51;99.05;97071.28;5056497;28;19928;-91
2020/12/12 08:52:50;;;;;;;;;;;;;;;4.41;99.17;97075.06;5038716;28;20661;-87
2020/12/12 08:55:18;;;;;;;;;;;;;;;4.60;97.22;97078.56;5043670;28;19950;-93
2020/12/12 08:57:56;;;;;;;;;;;;;;;4.49;99.57;97084.97;5020427;28;20415;-88
2020/12/12 09:00:22;;;;;;;;;;;;;;;4.54;100.00;97091.56;5049910;28;19929;-88
2020/12/12 09:02:47;;;;;;;;;;;;;;;4.48;98.54;97090.97;5033755;28;19951;-87
2020/12/12 09:05:12;;;;;;;;;;;;;;;4.72;98.48;97094.28;5019310;28;19928;-88
2020/12/12 09:07:38;;;;;;;;;;;;;;;4.96;98.14;97098.41;5034493;28;19928;-89
2020/12/12 09:10:12;;;;;;;;;;;;;;;4.58;99.44;97103.31;5034926;28;19955;-88
2020/12/12 09:12:44;;;;;;;;;;;;;;;5.00;98.45;97102.50;5000692;28;19929;-89
2020/12/12 09:15:10;;;;;;;;;;;;;;;5.05;96.54;97106.59;5030445;28;19924;-91
2020/12/12 09:17:35;;;;;;;;;;;;;;;5.25;96.64;97111.72;5040712;28;19934;-91
2020/12/12 09:20:00;;;;;;;;;;;;;;;5.08;95.71;97112.38;5040845;28;19924;-90
2020/12/12 09:22:26;;;;;;;;;;;;;;;5.14;95.38;97118.97;5025491;28;19920;-90
2020/12/12 09:24:51;;;;;;;;;;;;;;;5.17;97.04;97121.41;5048674;28;20043;-91
2020/12/12 09:27:16;;;;;;;;;;;;;;;5.36;95.04;97136.78;5043061;28;19925;-90
2020/12/12 09:29:42;;;;;;;;;;;;;;;5.41;96.63;97130.59;5082523;28;19966;-93
2020/12/12 09:32:07;;;;;;;;;;;;;;;5.40;96.49;97141.69;5053974;22;20431;-96
2020/12/12 09:34:32;;;;;;;;;;;;;;;5.37;95.83;97146.94;5015748;28;20199;-92
2020/12/12 09:36:58;;;;;;;;;;;;;;;5.81;95.93;97149.34;5049904;28;20403;-92
2020/12/12 09:39:23;;;;;;;;;;;;;;;5.99;94.84;97147.75;5015122;28;19923;-91
2020/12/12 09:41:48;;;;;;;;;;;;;;;5.65;94.83;97149.16;5010676;28;20392;-90
2020/12/12 09:44:14;;;;;;;;;;;;;;;5.87;94.87;97151.66;5013096;28;20440;-91
2020/12/12 09:46:39;;;;;;;;;;;;;;;5.97;94.68;97154.66;5022170;28;20944;-89
2020/12/12 09:49:04;;;;;;;;;;;;;;;5.75;95.08;97157.28;5022263;28;19921;-91
2020/12/12 09:51:30;;;;;;;;;;;;;;;5.89;95.00;97158.44;5017493;28;19921;-90
2020/12/12 09:53:56;;;;;;;;;;;;;;;5.94;93.96;97165.03;5009215;28;19927;-89
2020/12/12 09:56:22;;;;;;;;;;;;;;;6.18;94.73;97168.25;5045577;28;19921;-89
2020/12/12 09:58:48;;;;;;;;;;;;;;;6.28;94.04;97168.66;5009028;28;19928;-91
2020/12/12 10:01:13;;;;;;;;;;;;;;;6.35;94.67;97176.91;5033764;28;19928;-90
2020/12/12 10:03:49;;;;;;;;;;;;;;;;;;;;;
2020/12/12 10:06:15;;;;;;;;;;;;;;;5.98;95.63;97173.41;5031014;28;19920;-89
2020/12/12 10:08:40;;;;;;;;;;;;;;;5.95;96.15;97170.94;5010460;28;19931;-90
2020/12/12 10:11:06;;;;;;;;;;;;;;;6.42;94.80;97175.72;5012398;28;19924;-89
2020/12/12 10:13:31;;;;;;;;;;;;;;;6.60;94.35;97174.91;5020353;28;19927;-92
2020/12/12 10:15:56;;;;;;;;;;;;;;;6.79;93.67;97176.59;5026657;28;19920;-91
2020/12/12 10:18:22;;;;;;;;;;;;;;;6.59;94.04;97180.94;5004818;28;19921;-92
2020/12/12 10:20:47;;;;;;;;;;;;;;;6.65;94.29;97180.63;5019778;28;20035;-93
2020/12/12 10:23:12;;;;;;;;;;;;;;;6.65;93.85;97174.69;5028362;28;20007;-92
2020/12/12 10:25:38;;;;;;;;;;;;;;;6.51;93.81;97182.16;5026125;28;19947;-89
2020/12/12 10:28:03;;;;;;;;;;;;;;;6.67;94.09;97181.38;5012148;28;19928;-90
2020/12/12 10:30:30;;;;;;;;;;;;;;;6.51;93.51;97180.44;5027354;28;19924;-90
2020/12/12 10:32:55;;;;;;;;;;;;;;;6.03;96.38;97181.69;5012323;28;19924;-89
2020/12/12 10:35:21;;;;;;;;;;;;;;;6.26;95.72;97184.06;5023680;28;19944;-89
2020/12/12 10:37:46;;;;;;;;;;;;;;;6.30;96.02;97191.63;5028700;28;19921;-93
2020/12/12 10:40:16;;;;;;;;;;;;;;;6.41;95.24;97194.50;5024210;28;19925;-90
2020/12/12 10:42:41;;;;;;;;;;;;;;;6.69;94.83;97194.13;5013087;28;19927;-91
2020/12/12 10:45:07;;;;;;;;;;;;;;;6.71;94.51;97197.44;5011971;28;19925;-93
2020/12/12 10:47:34;;;;;;;;;;;;;;;6.71;93.39;97202.56;5045596;28;19920;-91
2020/12/12 10:50:00;;;;;;;;;;;;;;;6.35;95.58;97205.03;5017312;28;19932;-89
2020/12/12 10:52:26;;;;;;;;;;;;;;;6.20;95.93;97197.13;5023248;28;19921;-90
2020/12/12 10:54:52;;;;;;;;;;;;;;;6.12;96.69;97199.19;5025815;28;19927;-92
2020/12/12 10:57:17;;;;;;;;;;;;;;;6.38;96.08;97197.22;5046785;28;19925;-90
2020/12/12 10:59:42;;;;;;;;;;;;;;;6.92;93.73;97210.97;5012587;28;20915;-90
2020/12/12 11:02:14;;;;;;;;;;;;;;;7.32;92.84;97204.81;5051231;28;19920;-94
2020/12/12 11:04:39;;;;;;;;;;;;;;;7.01;93.18;97214.84;5028128;28;19920;-94
2020/12/12 11:07:05;;;;;;;;;;;;;;;7.30;92.63;97216.03;5027987;28;20586;-93
2020/12/12 11:09:30;;;;;;;;;;;;;;;7.11;93.13;97210.94;5020606;28;19920;-91
2020/12/12 11:11:56;;;;;;;;;;;;;;;7.12;93.13;97227.97;5028514;28;20019;-93
2020/12/12 11:14:24;;;;;;;;;;;;;;;7.46;92.03;97227.22;5028065;28;19921;-95
2020/12/12 11:16:49;;;;;;;;;;;;;;;7.68;91.73;97221.84;5017675;28;19920;-92
2020/12/12 11:19:15;;;;;;;;;;;;;;;7.33;92.47;97223.56;5007911;28;20434;-93
2020/12/12 11:21:40;;;;;;;;;;;;;;;7.54;91.85;97224.28;5026965;28;19930;-92
2020/12/12 11:24:08;;;;;;;;;;;;;;;7.56;90.67;97219.91;5026623;28;19920;-94
2020/12/12 11:26:33;;;;;;;;;;;;;;;7.56;91.38;97229.31;5034317;28;19921;-93
2020/12/12 11:28:59;;;;;;;;;;;;;;;7.47;92.43;97228.03;5018999;28;19921;-93
2020/12/12 11:31:28;;;;;;;;;;;;;;;7.65;91.35;97232.25;5025229;28;20285;-94
2020/12/12 11:34:00;;;;;;;;;;;;;;;7.89;91.19;97237.09;5010076;28;19921;-95
2020/12/12 11:39:02;;;;;;;;;;;;;;;7.78;90.47;97237.63;5015868;28;21042;-93
2020/12/12 11:44:13;;;;;;;;;;;;;;;7.99;91.56;97240.03;5056816;23;19928;-78
2020/12/12 11:46:38;;;;;;;;;;;;;;;7.93;90.38;97236.03;5113295;27;19916;-79
2020/12/12 11:49:04;;;;;;;;;;;;;;;7.90;91.54;97244.69;5101555;27;19934;-79
2020/12/12 11:51:34;;;;;;;;;;;;;;;7.94;91.78;97248.78;5113409;27;19976;-79
2020/12/12 11:53:59;;;;;;;;;;;;;;;7.43;92.86;97247.00;5131677;27;19915;-79
2020/12/12 11:56:25;;;;;;;;;;;;;;;7.66;91.77;97254.44;5097919;27;20359;-79
2020/12/12 11:58:52;;;;;;;;;;;;;;;7.49;92.51;97257.78;5113652;27;19994;-79
2020/12/12 12:01:24;;;;;;;;;;;;;;;7.64;91.97;97265.63;5095158;27;20454;-79
2020/12/12 12:03:50;;;;;;;;;;;;;;;7.81;91.09;97263.09;5112712;27;20361;-80
2020/12/12 12:06:16;;;;;;;;;;;;;;;7.54;92.00;97265.25;5112314;27;19916;-79
2020/12/12 12:11:29;;;;;;;;;;;;;;;7.41;92.06;97267.59;5111634;27;20383;-79
2020/12/12 12:13:54;;;;;;;;;;;;;;;7.56;92.97;97266.00;5113714;27;20425;-79
2020/12/12 12:16:20;;;;;;;;;;;;;;;7.17;93.05;97277.22;5113818;27;19935;-79
2020/12/12 12:18:46;;;;;;;;;;;;;;;7.56;92.94;97275.44;5113574;27;19918;-81
2020/12/12 12:21:11;;;;;;;;;;;;;;;7.67;92.84;97273.19;5096790;27;19929;-79
2020/12/12 12:23:36;;;;;;;;;;;;;;;7.57;92.70;97269.41;5132160;27;19980;-79
2020/12/12 12:26:02;;;;;;;;;;;;;;;7.23;93.22;97270.97;5095357;27;20548;-79
2020/12/12 12:28:27;;;;;;;;;;;;;;;7.30;92.73;97277.50;5131883;27;19923;-79
2020/12/12 12:30:53;;;;;;;;;;;;;;;7.22;93.47;97279.56;5113590;27;20388;-79
2020/12/12 12:33:18;;;;;;;;;;;;;;;7.23;93.02;97273.53;5132073;27;19954;-79
2020/12/12 12:35:44;;;;;;;;;;;;;;;7.24;94.00;97277.78;5096594;27;19915;-79
2020/12/12 12:38:09;;;;;;;;;;;;;;;7.28;93.63;97279.28;5113790;27;19968;-79
2020/12/12 12:40:35;;;;;;;;;;;;;;;7.44;93.46;97282.78;5113014;27;19911;-79
2020/12/12 12:43:01;;;;;;;;;;;;;;;7.41;93.50;97277.81;5110482;27;19916;-79
2020/12/12 12:45:26;;;;;;;;;;;;;;;7.46;92.95;97283.56;5095271;27;19923;-79
2020/12/12 12:47:52;;;;;;;;;;;;;;;7.63;91.49;97285.31;5124426;27;19930;-80
2020/12/12 12:50:17;;;;;;;;;;;;;;;7.39;94.00;97287.31;5112801;27;20018;-80
2020/12/12 12:52:43;;;;;;;;;;;;;;;7.26;94.36;97281.91;5130356;27;19919;-80
2020/12/12 12:55:09;;;;;;;;;;;;;;;7.25;93.49;97279.41;5129039;27;20368;-80
2020/12/12 12:57:34;;;;;;;;;;;;;;;7.07;93.34;97289.63;5130159;27;19912;-80